Time;durP1;ratioP1;P1;durP2;ratioP2;P2;SDS_P1;SDS_P2;PMS_P1;PMS_P2;Temp;Humidity;BMP_temperature;BMP_pressure;BME280_temperature;BME280_humidity;BME280_pressure;Samples;Min_cycle;Max_cycle;Signal;HPM_P1;HPM_P2
2021/08/28 00:00:01;;;;;;;4.60;2.17;;;;;;;15.98;74.18;99833.09;814019;47;20046;-78
2021/08/28 00:00:51;;;;;;;4.63;2.15;;;;;;;16.06;73.77;99832.16;814100;47;20046;-77
2021/08/28 00:01:39;;;;;;;4.40;2.42;;;;;;;16.01;74.26;99831.91;814319;54;20053;-77
2021/08/28 00:02:25;;;;;;;3.95;2.10;;;;;;;16.11;73.86;99835.13;814664;54;20068;-78
2021/08/28 00:03:14;;;;;;;3.78;2.13;;;;;;;16.18;73.49;99829.81;814601;54;20035;-78
2021/08/28 00:04:00;;;;;;;3.95;2.25;;;;;;;16.06;73.85;99830.28;814311;54;20034;-78
2021/08/28 00:04:48;;;;;;;4.90;2.42;;;;;;;15.91;74.03;99826.75;814174;54;20060;-78
2021/08/28 00:05:34;;;;;;;5.35;2.90;;;;;;;15.88;74.55;99830.69;816211;39;20877;-78
2021/08/28 00:06:24;;;;;;;4.30;2.83;;;;;;;15.98;74.17;99827.69;814482;54;20043;-78
2021/08/28 00:07:10;;;;;;;4.70;2.58;;;;;;;16.05;73.94;99831.34;814368;47;20038;-78
2021/08/28 00:07:58;;;;;;;4.43;2.53;;;;;;;15.88;74.16;99838.75;814482;54;20026;-78
2021/08/28 00:08:44;;;;;;;4.47;3.03;;;;;;;15.86;74.62;99830.00;814278;54;20068;-77
2021/08/28 00:09:33;;;;;;;7.78;3.85;;;;;;;15.72;75.02;99834.34;814638;54;20035;-78
2021/08/28 00:10:19;;;;;;;6.15;3.30;;;;;;;15.72;74.81;99830.81;814380;47;20038;-77
2021/08/28 00:11:08;;;;;;;6.28;3.80;;;;;;;15.63;75.25;99834.63;814412;47;20042;-78
2021/08/28 00:11:53;;;;;;;5.30;3.00;;;;;;;15.85;74.79;99835.59;816203;39;20399;-78
2021/08/28 00:12:42;;;;;;;5.13;2.88;;;;;;;15.93;74.40;99831.97;814923;54;20066;-78
2021/08/28 00:13:28;;;;;;;5.60;2.92;;;;;;;15.90;74.23;99828.63;814655;39;20939;-80
2021/08/28 00:14:19;;;;;;;4.20;2.45;;;;;;;16.01;74.04;99831.91;814356;47;20041;-78
2021/08/28 00:15:08;;;;;;;4.72;2.58;;;;;;;16.06;73.54;99832.97;814455;47;20036;-79
2021/08/28 00:15:57;;;;;;;6.00;2.83;;;;;;;16.06;73.94;99830.28;814176;47;20043;-77
2021/08/28 00:16:43;;;;;;;4.22;2.75;;;;;;;16.00;73.79;99836.44;814582;54;20601;-78
2021/08/28 00:17:35;;;;;;;4.88;2.65;;;;;;;16.12;73.81;99828.72;813902;47;20062;-78
2021/08/28 00:18:22;;;;;;;5.15;2.38;;;;;;;16.12;73.78;99826.00;814227;47;20054;-78
2021/08/28 00:19:11;;;;;;;5.07;2.95;;;;;;;16.14;73.36;99825.84;814005;47;20683;-77
2021/08/28 00:19:57;;;;;;;5.13;2.88;;;;;;;16.18;73.50;99832.53;814375;47;20034;-78
2021/08/28 00:20:46;;;;;;;5.10;2.78;;;;;;;16.22;73.33;99828.44;814190;54;20042;-77
2021/08/28 00:21:34;;;;;;;4.40;2.58;;;;;;;16.19;73.53;99837.75;814199;54;20038;-78
2021/08/28 00:22:23;;;;;;;4.57;2.75;;;;;;;16.23;73.19;99835.50;814110;54;20068;-78
2021/08/28 00:23:09;;;;;;;4.97;2.70;;;;;;;16.28;73.47;99830.38;814366;54;20042;-78
2021/08/28 00:23:57;;;;;;;4.95;2.45;;;;;;;16.30;73.08;99827.47;814659;39;20684;-77
2021/08/28 00:24:43;;;;;;;4.60;2.85;;;;;;;16.20;73.42;99833.19;814152;54;20046;-77
2021/08/28 00:25:32;;;;;;;5.72;3.25;;;;;;;16.10;73.69;99828.09;814114;54;20034;-78
2021/08/28 00:26:18;;;;;;;4.95;3.00;;;;;;;16.02;73.99;99826.31;814155;47;20946;-78
2021/08/28 00:27:07;;;;;;;5.47;3.35;;;;;;;16.10;73.72;99832.63;813941;47;20031;-77
2021/08/28 00:27:53;;;;;;;4.40;3.15;;;;;;;16.19;73.56;99831.50;813991;47;20038;-77
2021/08/28 00:28:42;;;;;;;4.95;2.83;;;;;;;16.25;73.33;99832.63;815266;39;20831;-78
2021/08/28 00:29:30;;;;;;;5.72;2.70;;;;;;;16.26;73.44;99835.13;814231;54;20125;-78
2021/08/28 00:30:19;;;;;;;5.28;3.15;;;;;;;16.29;73.36;99826.66;814302;54;20073;-79
2021/08/28 00:31:05;;;;;;;4.97;2.92;;;;;;;16.28;73.16;99830.38;814022;47;20054;-78
2021/08/28 00:31:54;;;;;;;5.20;2.90;;;;;;;16.26;73.39;99826.22;814338;47;20042;-78
2021/08/28 00:32:40;;;;;;;4.90;2.70;;;;;;;16.20;73.71;99825.09;814101;54;20067;-78
2021/08/28 00:33:28;;;;;;;4.28;2.70;;;;;;;16.27;73.55;99831.41;815520;39;20664;-77
2021/08/28 00:34:14;;;;;;;4.55;2.90;;;;;;;16.32;73.15;99829.00;811899;47;20038;-76
2021/08/28 00:35:03;;;;;;;5.60;2.38;;;;;;;16.37;73.31;99829.25;812071;54;20030;-77
2021/08/28 00:35:49;;;;;;;4.55;2.70;;;;;;;16.34;73.11;99832.31;812097;47;20043;-76
2021/08/28 00:36:37;;;;;;;4.30;2.80;;;;;;;16.35;73.10;99817.81;811984;47;20034;-77
2021/08/28 00:37:23;;;;;;;4.25;2.75;;;;;;;16.30;73.48;99828.34;811769;47;20046;-77
2021/08/28 00:38:12;;;;;;;3.92;2.33;;;;;;;16.39;73.20;99826.34;812001;47;20034;-77
2021/08/28 00:38:58;;;;;;;4.70;2.35;;;;;;;16.40;73.07;99824.50;812275;47;20039;-77
2021/08/28 00:39:47;;;;;;;4.60;2.50;;;;;;;16.38;73.08;99825.53;812672;39;20442;-77
2021/08/28 00:40:34;;;;;;;5.93;2.88;;;;;;;16.40;72.89;99827.22;811967;47;20032;-76
2021/08/28 00:41:23;;;;;;;5.95;2.92;;;;;;;16.41;72.86;99829.72;811949;47;20038;-77
2021/08/28 00:42:09;;;;;;;4.05;2.45;;;;;;;16.44;72.58;99826.66;813160;39;20577;-77
2021/08/28 00:42:58;;;;;;;4.60;2.97;;;;;;;16.21;73.10;99822.19;812030;50;20041;-77
2021/08/28 00:43:44;;;;;;;5.22;2.50;;;;;;;16.33;73.40;99827.13;812039;54;20047;-76
2021/08/28 00:44:38;;;;;;;5.05;2.80;;;;;;;16.36;72.99;99832.97;812304;54;20042;-77
2021/08/28 00:45:25;;;;;;;4.70;2.70;;;;;;;16.38;73.18;99827.41;812058;47;20062;-77
2021/08/28 00:46:14;;;;;;;5.32;2.70;;;;;;;16.27;73.26;99828.72;812452;39;21490;-78
2021/08/28 00:47:00;;;;;;;5.05;2.67;;;;;;;16.39;72.82;99829.06;812291;47;20038;-77
2021/08/28 00:48:01;;;;;;;4.35;2.50;;;;;;;16.38;72.64;99825.53;812307;47;20042;-78
2021/08/28 00:48:47;;;;;;;4.78;2.70;;;;;;;16.30;73.10;99830.19;812726;54;20159;-77
2021/08/28 00:49:36;;;;;;;5.80;2.88;;;;;;;16.20;72.99;99825.09;812460;39;20538;-77
2021/08/28 00:50:23;;;;;;;5.72;3.03;;;;;;;16.18;73.46;99827.13;812457;54;20046;-76
2021/08/28 00:51:12;;;;;;;5.30;3.25;;;;;;;16.11;73.60;99835.13;811837;47;20034;-76
2021/08/28 00:51:58;;;;;;;5.82;2.75;;;;;;;16.18;73.30;99835.22;811886;54;20992;-76
2021/08/28 00:52:46;;;;;;;5.53;3.13;;;;;;;16.05;73.56;99828.66;812172;54;20042;-77
2021/08/28 00:53:32;;;;;;;5.63;2.90;;;;;;;16.08;73.58;99829.28;812243;47;20072;-76
2021/08/28 00:54:21;;;;;;;5.05;2.55;;;;;;;16.15;73.39;99832.91;812234;54;20094;-76
2021/08/28 00:55:08;;;;;;;5.72;2.75;;;;;;;16.21;73.09;99832.97;812213;54;20063;-77
2021/08/28 00:55:56;;;;;;;5.15;3.00;;;;;;;16.16;73.13;99827.31;812221;54;20049;-77
2021/08/28 00:56:43;;;;;;;5.50;3.15;;;;;;;15.95;73.72;99828.09;812189;54;20039;-77
2021/08/28 00:57:31;;;;;;;4.75;2.70;;;;;;;16.05;73.51;99831.34;812781;39;20446;-77
2021/08/28 00:58:17;;;;;;;5.32;3.10;;;;;;;16.04;73.62;99834.19;812069;54;20038;-77
2021/08/28 00:59:06;;;;;;;5.28;3.13;;;;;;;16.02;73.89;99833.53;812216;46;20048;-77
2021/08/28 00:59:54;;;;;;;4.75;2.95;;;;;;;16.00;73.75;99836.44;811650;46;21632;-77
2021/08/28 01:00:45;;;;;;;5.55;2.70;;;;;;;16.12;73.58;99835.97;812338;54;20034;-76
2021/08/28 01:01:35;;;;;;;5.07;2.40;;;;;;;16.05;73.39;99836.72;812074;47;20038;-76
2021/08/28 01:02:27;;;;;;;4.80;2.72;;;;;;;15.79;73.95;99836.28;812329;47;20058;-77
2021/08/28 01:03:17;;;;;;;5.70;3.25;;;;;;;15.72;74.44;99837.03;812310;47;20063;-77
2021/08/28 01:04:08;;;;;;;6.55;3.50;;;;;;;15.67;74.83;99835.91;812510;54;20589;-77
2021/08/28 01:05:03;;;;;;;5.93;3.17;;;;;;;15.61;74.76;99837.47;812166;47;20062;-76
2021/08/28 01:05:59;;;;;;;5.07;3.35;;;;;;;15.71;74.66;99834.53;812729;54;20038;-76
2021/08/28 01:06:51;;;;;;;6.03;3.33;;;;;;;15.68;74.48;99830.31;812343;47;20063;-78
2021/08/28 01:07:50;;;;;;;5.43;3.05;;;;;;;15.61;74.71;99840.16;812613;54;20041;-76
2021/08/28 01:08:43;;;;;;;6.70;3.37;;;;;;;15.51;75.58;99832.34;812290;54;20616;-77
2021/08/28 01:09:35;;;;;;;8.00;3.75;;;;;;;15.67;74.70;99831.38;812652;54;20258;-77
2021/08/28 01:10:26;;;;;;;6.63;3.67;;;;;;;15.59;74.90;99832.28;812135;47;20042;-77
2021/08/28 01:11:34;;;;;;;6.97;3.10;;;;;;;15.52;75.36;99830.47;812109;47;20046;-77
2021/08/28 01:12:23;;;;;;;5.68;3.08;;;;;;;15.46;75.56;99826.66;812898;39;20548;-77
2021/08/28 01:13:16;;;;;;;7.40;3.20;;;;;;;15.56;75.24;99826.41;812316;47;20043;-77
2021/08/28 01:14:08;;;;;;;4.68;2.72;;;;;;;15.69;74.69;99821.22;812445;39;20546;-77
2021/08/28 01:15:04;;;;;;;5.30;3.30;;;;;;;15.59;75.07;99832.28;812599;39;20145;-76
2021/08/28 01:15:52;;;;;;;5.22;3.03;;;;;;;15.51;75.27;99828.81;812220;47;20039;-77
2021/08/28 01:16:42;;;;;;;6.03;3.78;;;;;;;15.50;75.47;99827.13;812165;54;20039;-76
2021/08/28 01:17:32;;;;;;;5.50;3.42;;;;;;;15.36;76.07;99820.69;811936;54;20826;-76
2021/08/28 01:18:23;;;;;;;5.70;3.42;;;;;;;15.29;76.20;99824.13;812061;54;20939;-78
2021/08/28 01:19:17;;;;;;;6.15;3.70;;;;;;;15.42;75.95;99823.50;812394;47;20046;-76
2021/08/28 01:20:14;;;;;;;4.82;3.15;;;;;;;15.59;75.15;99824.19;812068;47;20034;-77
2021/08/28 01:21:05;;;;;;;4.85;2.75;;;;;;;15.62;74.87;99824.84;812798;54;20604;-77
2021/08/28 01:21:54;;;;;;;;;;;;;;;15.49;75.20;99820.91;812975;54;20046;-76
2021/08/28 01:22:41;;;;;;;7.53;3.20;;;;;;;15.43;75.32;99827.03;812723;54;19970;-77
2021/08/28 01:23:32;;;;;;;5.07;3.05;;;;;;;15.38;75.81;99822.19;812380;54;20042;-76
2021/08/28 01:24:20;;;;;;;5.88;2.45;;;;;;;15.58;75.01;99819.81;812406;47;20038;-76
2021/08/28 01:25:12;;;;;;;4.80;2.90;;;;;;;15.65;74.99;99825.31;813648;31;20554;-76
2021/08/28 01:26:02;;;;;;;4.25;2.33;;;;;;;15.73;74.46;99806.38;812658;54;20046;-77
2021/08/28 01:26:57;;;;;;;4.50;2.20;;;;;;;15.80;74.11;99814.56;811925;47;20034;-77
2021/08/28 01:27:49;;;;;;;4.95;2.38;;;;;;;15.84;74.29;99810.50;812280;54;20034;-76
2021/08/28 01:28:45;;;;;;;7.00;2.92;;;;;;;15.55;75.07;99816.66;812075;47;20041;-77
2021/08/28 01:29:35;;;;;;;7.03;3.08;;;;;;;15.48;75.41;99807.63;815116;39;20430;-76
2021/08/28 01:30:25;;;;;;;4.90;3.22;;;;;;;15.65;74.89;99814.53;812157;54;20063;-77
2021/08/28 01:31:12;;;;;;;5.25;3.22;;;;;;;15.59;74.67;99804.47;812423;54;20034;-76
2021/08/28 01:32:02;;;;;;;5.38;2.83;;;;;;;15.65;74.92;99801.06;811852;47;20043;-77
2021/08/28 01:32:50;;;;;;;7.60;3.60;;;;;;;15.52;75.06;99800.84;812654;54;20066;-76
2021/08/28 01:33:41;;;;;;;6.32;3.58;;;;;;;15.47;75.53;99811.34;812389;47;20035;-77
2021/08/28 01:34:30;;;;;;;4.50;3.00;;;;;;;15.43;75.62;99808.19;812279;47;20064;-76
2021/08/28 01:35:21;;;;;;;5.43;3.60;;;;;;;15.36;75.75;99805.38;812481;47;20049;-77
2021/08/28 01:36:07;;;;;;;6.38;3.00;;;;;;;15.49;75.36;99803.94;812097;47;20545;-77
2021/08/28 01:36:58;;;;;;;5.88;3.10;;;;;;;15.56;74.97;99815.66;812345;54;20034;-76
2021/08/28 01:37:44;;;;;;;;;;;;;;;15.55;74.95;99811.28;812428;54;20030;-76
2021/08/28 01:38:33;;;;;;;6.70;2.97;;;;;;;15.56;74.92;99808.38;812228;47;19946;-76
2021/08/28 01:39:20;;;;;;;6.03;3.08;;;;;;;15.60;74.89;99812.41;812064;54;20053;-77
2021/08/28 01:40:11;;;;;;;5.88;3.17;;;;;;;15.60;75.08;99814.25;812181;54;20129;-77
2021/08/28 01:40:58;;;;;;;5.65;2.72;;;;;;;15.74;74.31;99810.75;811888;54;20038;-76
2021/08/28 01:41:50;;;;;;;5.95;3.13;;;;;;;15.59;74.79;99817.94;812218;47;20647;-77
2021/08/28 01:42:38;;;;;;;4.60;3.00;;;;;;;15.58;74.80;99819.81;811943;54;20030;-77
2021/08/28 01:43:30;;;;;;;5.03;2.80;;;;;;;15.62;75.02;99817.59;812330;54;20034;-77
2021/08/28 01:44:18;;;;;;;6.30;2.65;;;;;;;15.74;74.64;99808.06;812274;54;20592;-76
2021/08/28 01:45:13;;;;;;;4.95;2.42;;;;;;;15.82;74.32;99809.78;812297;54;20034;-76
2021/08/28 01:46:02;;;;;;;4.20;2.47;;;;;;;15.72;74.61;99809.25;812046;47;20046;-77
2021/08/28 01:46:51;;;;;;;5.07;3.00;;;;;;;15.59;74.93;99821.50;812147;54;20050;-77
2021/08/28 01:47:39;;;;;;;5.07;2.78;;;;;;;15.47;75.09;99820.25;812190;47;20133;-76
2021/08/28 01:48:27;;;;;;;7.35;3.30;;;;;;;15.50;75.37;99822.59;812327;47;20034;-76
2021/08/28 01:49:15;;;;;;;5.57;2.90;;;;;;;15.50;75.12;99821.75;812228;47;20034;-77
2021/08/28 01:50:04;;;;;;;6.88;3.28;;;;;;;15.48;75.51;99813.03;812128;54;20046;-77
2021/08/28 01:50:52;;;;;;;4.30;2.88;;;;;;;15.36;75.64;99824.22;812257;54;20212;-77
2021/08/28 01:51:42;;;;;;;5.20;2.88;;;;;;;15.36;75.71;99826.94;812811;54;20046;-76
2021/08/28 01:52:28;;;;;;;;;;;;;;;15.32;76.26;99824.78;812785;47;20063;-77
2021/08/28 01:53:19;;;;;;;5.47;2.83;;;;;;;15.39;75.74;99831.97;812120;47;19946;-77
2021/08/28 01:54:05;;;;;;;4.93;2.65;;;;;;;15.55;75.29;99820.19;812206;47;20034;-77
2021/08/28 01:54:53;;;;;;;4.22;2.40;;;;;;;15.65;74.83;99825.31;812236;54;20034;-77
2021/08/28 01:55:41;;;;;;;4.05;2.20;;;;;;;15.73;74.64;99833.31;812669;46;20035;-77
2021/08/28 01:56:27;;;;;;;4.10;2.10;;;;;;;15.74;74.61;99829.59;812228;54;20148;-76
2021/08/28 01:57:16;;;;;;;6.50;2.78;;;;;;;15.83;74.26;99821.44;812309;54;20057;-77
2021/08/28 01:58:02;;;;;;;5.13;2.20;;;;;;;15.88;73.98;99825.28;812193;47;20038;-76
2021/08/28 01:58:53;;;;;;;3.85;2.25;;;;;;;15.93;73.85;99827.44;812202;47;20153;-77
2021/08/28 01:59:40;;;;;;;6.85;3.03;;;;;;;15.95;73.90;99830.78;812399;54;20064;-78
2021/08/28 02:00:31;;;;;;;3.72;2.17;;;;;;;15.99;73.44;99831.25;811844;54;20069;-77
2021/08/28 02:01:18;;;;;;;4.30;2.50;;;;;;;15.95;73.97;99825.38;812300;54;20086;-77
2021/08/28 02:02:07;;;;;;;4.10;2.47;;;;;;;16.00;73.46;99827.53;812166;47;20065;-77
2021/08/28 02:02:53;;;;;;;4.03;2.20;;;;;;;16.02;73.40;99826.31;811984;47;20038;-77
2021/08/28 02:03:42;;;;;;;4.70;2.20;;;;;;;16.01;73.56;99819.25;812853;47;20034;-76
2021/08/28 02:04:28;;;;;;;6.07;3.00;;;;;;;15.85;74.02;99828.34;812291;54;20102;-77
2021/08/28 02:05:17;;;;;;;4.75;2.45;;;;;;;15.77;73.87;99832.97;812028;47;20035;-76
2021/08/28 02:06:04;;;;;;;6.75;2.80;;;;;;;15.81;74.33;99826.16;812054;47;20030;-77
2021/08/28 02:06:58;;;;;;;4.10;2.70;;;;;;;15.90;73.60;99828.63;812280;54;20054;-77
2021/08/28 02:07:50;;;;;;;4.63;2.70;;;;;;;15.83;73.94;99829.53;812959;54;20034;-77
2021/08/28 02:08:52;;;;;;;4.57;2.50;;;;;;;15.81;73.76;99828.84;812313;47;20034;-77
2021/08/28 02:09:43;;;;;;;4.72;2.85;;;;;;;15.63;74.43;99831.91;812747;54;20785;-76
2021/08/28 02:10:40;;;;;;;4.50;2.63;;;;;;;15.74;74.33;99834.13;812011;47;20043;-77
2021/08/28 02:11:32;;;;;;;6.35;2.75;;;;;;;15.74;74.31;99831.44;812585;54;20054;-77
2021/08/28 02:12:29;;;;;;;5.75;2.58;;;;;;;15.74;74.07;99835.00;811912;54;20034;-77
2021/08/28 02:13:24;;;;;;;5.90;2.53;;;;;;;15.73;74.32;99838.72;812066;47;20038;-77
2021/08/28 02:14:18;;;;;;;4.55;2.45;;;;;;;15.78;73.69;99837.31;812324;47;20857;-77
2021/08/28 02:15:08;;;;;;;6.88;2.80;;;;;;;15.72;74.08;99844.28;812327;47;20038;-77
2021/08/28 02:16:07;;;;;;;4.38;2.50;;;;;;;15.71;73.90;99840.75;812515;54;20035;-78
2021/08/28 02:16:54;;;;;;;5.40;3.05;;;;;;;15.63;74.42;99840.00;812565;54;20046;-76
2021/08/28 02:17:49;;;;;;;5.57;2.58;;;;;;;15.73;74.01;99840.53;811936;47;20042;-78
2021/08/28 02:18:44;;;;;;;6.05;3.17;;;;;;;15.69;73.83;99842.78;812116;51;20046;-77
2021/08/28 02:19:36;;;;;;;3.65;2.38;;;;;;;15.77;73.76;99841.03;812019;47;20616;-77
2021/08/28 02:20:28;;;;;;;3.95;2.30;;;;;;;15.83;73.69;99837.59;811938;47;20043;-77
2021/08/28 02:21:18;;;;;;;4.40;2.72;;;;;;;15.75;73.89;99836.66;811931;54;20811;-78
2021/08/28 02:22:12;;;;;;;5.95;3.42;;;;;;;15.63;74.04;99838.13;812129;47;20045;-77
2021/08/28 02:23:06;;;;;;;4.82;2.67;;;;;;;15.73;74.15;99838.72;812751;54;20046;-77
2021/08/28 02:24:02;;;;;;;3.70;2.10;;;;;;;15.78;73.78;99837.31;811871;47;20072;-78
2021/08/28 02:24:59;;;;;;;4.25;2.30;;;;;;;15.82;73.87;99835.94;812646;54;20034;-77
2021/08/28 02:25:56;;;;;;;4.63;2.20;;;;;;;15.88;73.63;99837.91;812340;47;21320;-77
2021/08/28 02:26:52;;;;;;;4.05;2.15;;;;;;;15.91;73.58;99834.84;811999;47;20700;-77
2021/08/28 02:27:46;;;;;;;4.57;2.40;;;;;;;15.83;73.80;99832.22;812184;47;20042;-77
2021/08/28 02:28:44;;;;;;;5.85;2.65;;;;;;;15.82;74.03;99835.94;812269;47;20042;-77
2021/08/28 02:29:34;;;;;;;3.80;2.22;;;;;;;15.82;73.62;99841.31;812118;47;20026;-77
2021/08/28 02:30:24;;;;;;;4.05;2.67;;;;;;;15.85;73.52;99835.59;812097;47;20034;-77
2021/08/28 02:31:13;;;;;;;6.50;3.15;;;;;;;15.75;73.98;99839.38;814060;39;20435;-76
2021/08/28 02:32:01;;;;;;;5.00;2.90;;;;;;;15.77;73.81;99838.34;812264;47;20562;-77
2021/08/28 02:32:50;;;;;;;5.82;3.67;;;;;;;15.61;74.57;99832.09;812530;54;20041;-77
2021/08/28 02:33:40;;;;;;;5.50;3.85;;;;;;;15.65;74.37;99830.72;812780;54;20072;-78
2021/08/28 02:34:28;;;;;;;5.10;2.78;;;;;;;15.71;74.05;99839.91;812671;54;20038;-77
2021/08/28 02:35:18;;;;;;;6.28;3.50;;;;;;;15.56;74.72;99831.81;812807;54;20034;-77
2021/08/28 02:36:05;;;;;;;6.45;3.78;;;;;;;15.43;75.06;99832.44;811950;47;20241;-76
2021/08/28 02:36:54;;;;;;;5.68;3.80;;;;;;;15.46;74.95;99837.44;812403;54;20094;-77
2021/08/28 02:37:44;;;;;;;4.38;2.92;;;;;;;15.55;74.77;99840.91;812640;54;20043;-78
2021/08/28 02:38:34;;;;;;;6.00;3.65;;;;;;;15.66;74.70;99843.16;811639;47;20038;-78
2021/08/28 02:39:21;;;;;;;4.65;2.72;;;;;;;15.74;74.36;99840.38;811791;54;20038;-77
2021/08/28 02:40:14;;;;;;;5.35;3.35;;;;;;;15.72;73.96;99842.41;811735;54;20038;-78
2021/08/28 02:41:03;;;;;;;5.95;3.13;;;;;;;15.73;73.92;99841.41;811821;47;20034;-77
2021/08/28 02:41:53;;;;;;;4.10;3.08;;;;;;;15.75;73.97;99831.28;811756;47;20042;-77
2021/08/28 02:42:40;;;;;;;4.85;2.83;;;;;;;15.79;73.66;99837.13;811535;47;20049;-79
2021/08/28 02:43:30;;;;;;;3.97;2.60;;;;;;;15.87;73.76;99833.56;811879;54;20035;-77
2021/08/28 02:44:18;;;;;;;4.65;3.10;;;;;;;15.85;73.52;99833.72;812212;54;20134;-78
2021/08/28 02:45:09;;;;;;;5.65;3.30;;;;;;;15.77;74.02;99832.97;812846;54;20039;-77
2021/08/28 02:45:55;;;;;;;;;;;;;;;15.71;74.28;99839.91;813008;39;20493;-78
2021/08/28 02:46:49;;;;;;;5.47;3.30;;;;;;;15.74;74.14;99837.69;812555;54;19989;-77
2021/08/28 02:47:36;;;;;;;5.97;3.70;;;;;;;15.81;73.72;99840.50;811826;47;20034;-78
2021/08/28 02:48:27;;;;;;;5.43;3.25;;;;;;;15.83;73.95;99832.22;811803;47;20060;-77
2021/08/28 02:49:17;;;;;;;4.35;2.83;;;;;;;15.80;73.72;99836.13;812543;54;20042;-77
2021/08/28 02:50:06;;;;;;;4.50;3.20;;;;;;;15.86;73.58;99826.50;811646;47;20042;-77
2021/08/28 02:50:53;;;;;;;6.10;3.17;;;;;;;15.85;73.85;99833.72;811953;54;20062;-77
2021/08/28 02:51:43;;;;;;;5.40;3.00;;;;;;;15.88;73.42;99832.50;812121;54;20292;-77
2021/08/28 02:52:31;;;;;;;4.85;3.15;;;;;;;15.84;73.86;99829.34;813988;31;20518;-77
2021/08/28 02:53:23;;;;;;;4.50;2.60;;;;;;;15.84;73.67;99826.66;811729;54;20041;-77
2021/08/28 02:54:12;;;;;;;5.15;3.30;;;;;;;15.91;73.69;99826.75;811604;47;20122;-77
2021/08/28 02:55:04;;;;;;;4.25;2.80;;;;;;;15.91;73.45;99826.75;811810;47;20609;-77
2021/08/28 02:55:53;;;;;;;4.93;3.30;;;;;;;15.82;73.96;99822.44;812126;47;20038;-77
2021/08/28 02:56:43;;;;;;;6.00;3.47;;;;;;;15.85;73.91;99830.22;812282;47;20042;-78
2021/08/28 02:57:32;;;;;;;7.00;3.33;;;;;;;15.91;73.74;99824.06;812112;47;20060;-77
2021/08/28 02:58:22;;;;;;;5.22;2.72;;;;;;;15.92;73.64;99825.75;812541;54;20049;-77
2021/08/28 02:59:09;;;;;;;4.80;3.08;;;;;;;15.94;73.39;99822.84;812130;47;20045;-77
2021/08/28 02:59:59;;;;;;;5.90;3.97;;;;;;;15.86;73.83;99826.50;812083;47;20158;-77
2021/08/28 03:00:46;;;;;;;7.03;3.70;;;;;;;15.87;73.98;99820.91;811778;47;20098;-77
2021/08/28 03:01:37;;;;;;;5.45;4.07;;;;;;;15.78;73.90;99823.81;811680;54;20067;-76
2021/08/28 03:02:27;;;;;;;6.63;4.40;;;;;;;15.68;74.55;99824.09;812110;54;20042;-77
2021/08/28 03:03:17;;;;;;;7.53;4.68;;;;;;;15.64;74.72;99825.47;811991;47;20069;-77
2021/08/28 03:04:03;;;;;;;5.85;4.45;;;;;;;15.62;74.49;99820.28;812271;47;20070;-78
2021/08/28 03:04:53;;;;;;;5.47;4.35;;;;;;;15.60;74.74;99827.72;812489;54;20557;-77
2021/08/28 03:05:40;;;;;;;6.38;4.13;;;;;;;15.63;74.40;99827.34;812074;54;20108;-77
2021/08/28 03:06:32;;;;;;;5.50;3.92;;;;;;;15.67;74.17;99823.28;811924;47;20042;-77
2021/08/28 03:07:19;;;;;;;5.07;3.90;;;;;;;15.73;74.06;99816.28;812479;54;20070;-78
2021/08/28 03:08:08;;;;;;;5.32;3.50;;;;;;;15.80;74.04;99827.19;811787;54;20114;-77
2021/08/28 03:08:55;;;;;;;4.50;3.40;;;;;;;15.81;73.97;99818.06;812011;54;20049;-77
2021/08/28 03:09:44;;;;;;;7.75;4.65;;;;;;;15.57;74.60;99828.91;812050;47;20043;-77
2021/08/28 03:10:31;;;;;;;8.20;5.03;;;;;;;15.51;75.14;99820.72;812355;54;20593;-77
2021/08/28 03:11:22;;;;;;;7.38;4.65;;;;;;;15.53;74.94;99826.78;811629;47;20569;-77
2021/08/28 03:12:08;;;;;;;6.60;4.35;;;;;;;15.43;75.32;99817.09;812107;54;20038;-78
2021/08/28 03:12:55;;;;;;;9.23;4.57;;;;;;;15.49;75.00;99826.31;812083;47;20133;-78
2021/08/28 03:13:44;;;;;;;6.75;4.85;;;;;;;15.50;75.05;99816.34;811782;54;20042;-77
2021/08/28 03:14:30;;;;;;;6.32;4.72;;;;;;;15.42;75.20;99825.38;811934;54;20035;-77
2021/08/28 03:15:19;;;;;;;6.03;4.53;;;;;;;15.37;75.46;99823.22;812029;54;20034;-77
2021/08/28 03:16:06;;;;;;;7.85;5.28;;;;;;;15.35;75.76;99821.72;812264;47;20047;-78
2021/08/28 03:16:56;;;;;;;6.50;4.20;;;;;;;15.51;75.22;99824.28;811918;47;21069;-78
2021/08/28 03:17:46;;;;;;;6.38;4.40;;;;;;;15.42;75.52;99819.97;812753;54;20090;-77
2021/08/28 03:18:35;;;;;;;;;;;;;;;15.26;76.23;99829.84;812111;54;20130;-77
2021/08/28 03:19:26;;;;;;;6.95;4.20;;;;;;;15.42;75.29;99823.50;812544;54;19950;-77
2021/08/28 03:20:15;;;;;;;6.95;3.90;;;;;;;15.49;75.20;99820.09;812091;47;20051;-76
2021/08/28 03:21:05;;;;;;;5.82;4.15;;;;;;;15.49;75.25;99825.47;812587;54;20038;-77
2021/08/28 03:21:53;;;;;;;5.03;3.85;;;;;;;15.46;75.20;99834.75;811962;47;20049;-77
2021/08/28 03:22:44;;;;;;;5.68;4.03;;;;;;;15.42;75.18;99828.88;812554;54;20035;-77
2021/08/28 03:23:32;;;;;;;8.85;4.90;;;;;;;15.35;75.51;99827.13;811917;54;20203;-77
2021/08/28 03:24:25;;;;;;;6.13;4.97;;;;;;;15.30;76.10;99827.66;811842;54;20042;-77
2021/08/28 03:25:13;;;;;;;7.50;5.47;;;;;;;15.25;76.23;99827.34;811870;54;20034;-78
2021/08/28 03:26:03;;;;;;;6.15;4.70;;;;;;;15.20;76.44;99817.13;811777;47;20041;-77
2021/08/28 03:26:51;;;;;;;7.68;5.15;;;;;;;15.18;76.49;99823.72;812003;47;20082;-77
2021/08/28 03:27:43;;;;;;;7.55;5.05;;;;;;;15.19;76.35;99814.63;812488;54;20067;-77
2021/08/28 03:28:33;;;;;;;6.38;5.00;;;;;;;15.21;76.29;99816.09;812028;47;20039;-77
2021/08/28 03:29:24;;;;;;;8.25;5.10;;;;;;;15.16;76.78;99809.59;812342;54;20089;-76
2021/08/28 03:30:13;;;;;;;6.88;5.32;;;;;;;15.16;76.63;99818.50;812398;47;20066;-77
2021/08/28 03:31:02;;;;;;;7.93;5.37;;;;;;;15.17;76.35;99811.25;811946;47;20041;-78
2021/08/28 03:31:50;;;;;;;6.70;5.45;;;;;;;15.18;76.73;99815.63;811985;47;20983;-78
2021/08/28 03:32:40;;;;;;;8.32;5.35;;;;;;;15.19;76.62;99817.31;811982;47;20863;-77
2021/08/28 03:33:29;;;;;;;;;;;;;;;15.11;76.79;99818.19;812928;54;20072;-77
2021/08/28 03:34:19;;;;;;;7.03;4.57;;;;;;;15.16;76.72;99813.09;812694;54;19990;-77
2021/08/28 03:35:08;;;;;;;6.15;4.60;;;;;;;15.12;76.87;99819.88;812226;47;20039;-77
2021/08/28 03:35:58;;;;;;;6.93;5.40;;;;;;;15.12;76.79;99819.88;811915;47;20104;-77
2021/08/28 03:36:48;;;;;;;6.28;4.88;;;;;;;15.13;76.83;99817.00;812786;39;20498;-77
2021/08/28 03:37:35;;;;;;;8.50;5.70;;;;;;;15.15;76.96;99822.22;812149;54;20046;-77
2021/08/28 03:38:24;;;;;;;7.95;5.50;;;;;;;15.13;76.70;99821.56;811720;47;20060;-77
2021/08/28 03:39:10;;;;;;;6.55;5.25;;;;;;;15.10;76.82;99821.91;812391;54;20050;-76
2021/08/28 03:39:59;;;;;;;6.57;5.00;;;;;;;15.17;76.62;99822.03;811805;54;20062;-77
2021/08/28 03:40:45;;;;;;;6.60;5.20;;;;;;;15.12;77.21;99820.72;812349;47;20035;-77
2021/08/28 03:41:34;;;;;;;8.27;5.43;;;;;;;15.11;77.31;99821.72;811774;47;20046;-77
2021/08/28 03:42:21;;;;;;;7.43;5.65;;;;;;;15.13;77.39;99826.94;812712;54;20077;-77
2021/08/28 03:43:12;;;;;;;7.25;4.82;;;;;;;15.08;77.17;99823.94;812357;54;20035;-78
2021/08/28 03:43:58;;;;;;;8.05;5.50;;;;;;;15.11;77.44;99821.72;812171;54;20570;-77
2021/08/28 03:44:46;;;;;;;6.82;5.07;;;;;;;15.11;77.29;99832.50;812006;47;20027;-77
2021/08/28 03:45:32;;;;;;;7.70;5.32;;;;;;;15.09;77.32;99821.09;812166;54;20120;-78
2021/08/28 03:46:19;;;;;;;8.13;5.97;;;;;;;15.09;77.49;99815.69;811839;47;20043;-78
2021/08/28 03:47:09;;;;;;;7.18;5.28;;;;;;;15.13;77.55;99827.75;812462;39;20116;-78
2021/08/28 03:47:55;;;;;;;6.65;5.30;;;;;;;15.13;77.36;99835.84;812204;47;20047;-78
2021/08/28 03:48:46;;;;;;;7.90;5.65;;;;;;;14.97;77.89;99825.19;813215;39;21249;-77
2021/08/28 03:49:32;;;;;;;7.80;5.82;;;;;;;15.09;77.44;99829.16;812697;54;20090;-78
2021/08/28 03:50:21;;;;;;;7.35;5.15;;;;;;;15.08;77.83;99834.72;812643;54;20059;-77
2021/08/28 03:51:07;;;;;;;6.18;5.00;;;;;;;15.10;77.63;99833.53;812827;54;20046;-78
2021/08/28 03:51:56;;;;;;;8.35;5.38;;;;;;;15.14;77.70;99828.63;812166;47;20731;-78
2021/08/28 03:52:42;;;;;;;7.57;5.32;;;;;;;15.13;77.42;99835.84;812073;47;20958;-77
2021/08/28 03:53:31;;;;;;;7.22;5.03;;;;;;;15.18;77.15;99835.31;812189;54;20059;-77
2021/08/28 03:54:17;;;;;;;6.82;5.60;;;;;;;15.16;77.35;99831.13;812613;54;20092;-78
2021/08/28 03:55:07;;;;;;;6.80;5.18;;;;;;;15.19;77.42;99833.47;812786;54;20039;-77
2021/08/28 03:55:56;;;;;;;7.47;5.57;;;;;;;15.28;77.11;99835.06;811849;47;20039;-77